Terminal Aerodrome Forecast
Issued by NWS Corpus Christi, TX

Home | Current Version | Previous Version | Text Only | Print | Product List | Glossary On
Versions: 1 2 3 4 5 6 7 8 9 10 11 12 13 14 15 16 17 18 19 20 21 22 23 24
820
FTUS44 KCRP 071726
TAFVCT
TAF
KVCT 071726Z 0718/0818 10005KT P6SM OVC005
      TEMPO 0718/0722 6SM -DZ BR OVC003
     FM080500 03006KT P6SM VCSH BKN005
     FM080800 02016G22KT P6SM VCSH BKN012
     FM081200 02025G32KT P6SM VCSH BKN015=

USA.gov is the U.S. government's official web portal to all federal, state and local government web resources and services.